Time;durP1;ratioP1;P1;durP2;ratioP2;P2;SDS_P1;SDS_P2;PMS_P1;PMS_P2;Temp;Humidity;BMP_temperature;BMP_pressure;BME280_temperature;BME280_humidity;BME280_pressure;Samples;Min_cycle;Max_cycle;Signal;HPM_P1;HPM_P2
2024/03/10 00:01:45;;;;;;;25.80;17.63;;;;;;;2.84;100.00;99876.69;5023487;28;20448;-74
2024/03/10 00:04:13;;;;;;;24.50;16.83;;;;;;;1.45;100.00;99676.06;5008233;28;20427;-74
2024/03/10 00:06:41;;;;;;;26.47;18.83;;;;;;;1.98;100.00;99745.97;5003031;28;20449;-74
2024/03/10 00:09:09;;;;;;;27.17;19.70;;;;;;;1.32;100.00;99581.44;5003597;28;20481;-74
2024/03/10 00:11:37;;;;;;;26.70;17.80;;;;;;;2.74;100.00;99809.03;5018142;28;21003;-74
2024/03/10 00:14:05;;;;;;;29.67;19.27;;;;;;;2.63;100.00;99789.91;5004618;28;20454;-75
2024/03/10 00:16:33;;;;;;;27.97;19.87;;;;;;;4.73;100.00;100165.56;5000455;28;20460;-75
2024/03/10 00:19:01;;;;;;;30.70;20.57;;;;;;;3.72;100.00;100013.41;4999228;28;20876;-74
2024/03/10 00:21:28;;;;;;;32.50;21.50;;;;;;;3.08;100.00;99917.31;5003080;28;20974;-75
2024/03/10 00:24:04;;;;;;;35.63;22.50;;;;;;;2.21;100.00;99784.94;5015096;28;20958;-75
2024/03/10 00:26:31;;;;;;;30.90;21.77;;;;;;;3.36;100.00;99979.47;5018147;28;20469;-75
2024/03/10 00:29:04;;;;;;;33.70;22.80;;;;;;;2.77;100.00;99914.63;5001785;28;20549;-74
2024/03/10 00:31:35;;;;;;;33.13;23.10;;;;;;;1.07;100.00;99609.75;5019898;28;20521;-75
2024/03/10 00:34:04;;;;;;;34.97;24.07;;;;;;;4.17;100.00;100102.06;4999014;28;20447;-75
2024/03/10 00:36:32;;;;;;;38.37;24.63;;;;;;;1.83;100.00;99737.09;5004160;28;20531;-74
2024/03/10 00:39:07;;;;;;;33.53;23.53;;;;;;;2.56;100.00;99860.41;5002443;28;20541;-74
2024/03/10 00:41:39;;;;;;;34.80;23.60;;;;;;;2.28;100.00;99782.44;5022882;28;20447;-74
2024/03/10 00:44:07;;;;;;;34.23;23.50;;;;;;;2.79;100.00;99863.13;4998651;28;20940;-75
2024/03/10 00:46:35;;;;;;;33.20;23.07;;;;;;;2.19;100.00;99786.91;5000574;28;21245;-74
2024/03/10 00:49:03;;;;;;;31.40;22.60;;;;;;;2.20;100.00;99792.06;5005197;28;20804;-74
2024/03/10 00:51:29;;;;;;;36.00;22.63;;;;;;;1.63;100.00;99669.75;5023198;28;20462;-74
2024/03/10 00:53:54;;;;;;;33.57;23.83;;;;;;;3.32;100.00;99943.69;5004871;28;20993;-74
2024/03/10 00:56:24;;;;;;;35.43;24.77;;;;;;;3.69;100.00;99999.69;5019787;28;20282;-74
2024/03/10 00:58:54;;;;;;;33.60;24.70;;;;;;;3.16;100.00;99939.31;5000164;28;20223;-74
2024/03/10 01:01:25;;;;;;;31.63;22.63;;;;;;;3.48;100.00;99989.69;5005030;28;20451;-74
2024/03/10 01:03:53;;;;;;;37.27;24.40;;;;;;;1.48;100.00;99659.06;5004073;28;20439;-75
2024/03/10 01:06:23;;;;;;;35.43;24.87;;;;;;;2.88;100.00;99856.78;5018171;28;20438;-75
2024/03/10 01:08:53;;;;;;;36.13;23.63;;;;;;;3.34;100.00;99933.75;5024070;28;20474;-75
2024/03/10 01:11:19;;;;;;;34.07;23.70;;;;;;;4.73;100.00;100115.91;5019161;28;20470;-74
2024/03/10 01:13:49;;;;;;;33.10;23.53;;;;;;;3.11;100.00;99885.16;5007763;28;20924;-74
2024/03/10 01:16:19;;;;;;;34.80;24.40;;;;;;;3.63;100.00;99987.94;5002748;28;20662;-74
2024/03/10 01:18:52;;;;;;;37.40;24.37;;;;;;;2.11;100.00;99724.28;5016745;28;20486;-74
2024/03/10 01:21:20;;;;;;;35.23;23.30;;;;;;;2.89;100.00;99817.88;5022371;28;20516;-74
2024/03/10 01:23:51;;;;;;;34.77;24.00;;;;;;;1.79;100.00;99710.19;4998900;28;20439;-74
2024/03/10 01:26:17;;;;;;;33.07;23.50;;;;;;;3.80;100.00;100037.25;5004017;28;20443;-74
2024/03/10 01:28:43;;;;;;;40.77;24.13;;;;;;;2.73;100.00;99892.94;5004575;28;20460;-74
2024/03/10 01:31:11;;;;;;;35.50;24.40;;;;;;;2.16;100.00;99761.63;5002846;28;20192;-74
2024/03/10 01:33:41;;;;;;;35.87;23.70;;;;;;;2.89;100.00;99869.06;5000568;28;20199;-74
2024/03/10 01:36:09;;;;;;;33.13;24.07;;;;;;;2.12;100.00;99746.28;5018410;28;20848;-74
2024/03/10 01:38:37;;;;;;;34.67;23.97;;;;;;;1.06;100.00;99576.41;5020416;28;20470;-74
2024/03/10 01:41:02;;;;;;;34.37;25.20;;;;;;;3.47;100.00;99953.53;5009314;28;20446;-74
2024/03/10 01:43:33;;;;;;;32.70;22.80;;;;;;;3.97;100.00;100047.78;4999865;28;20448;-73
2024/03/10 01:46:06;;;;;;;35.97;23.50;;;;;;;2.37;100.00;99795.47;5001488;28;20188;-74
2024/03/10 01:48:39;;;;;;;32.90;24.17;;;;;;;4.71;100.00;100173.72;5001791;28;21070;-74
2024/03/10 01:51:06;;;;;;;33.23;23.17;;;;;;;2.90;100.00;99870.69;5002353;28;20948;-74
2024/03/10 01:53:34;;;;;;;34.07;23.90;;;;;;;2.88;100.00;99862.09;5006998;28;20886;-74
2024/03/10 01:56:03;;;;;;;33.53;23.53;;;;;;;1.74;100.00;99674.66;5001748;28;20563;-73
2024/03/10 01:58:33;;;;;;;33.07;24.30;;;;;;;1.77;100.00;99690.19;5000382;28;20466;-74
2024/03/10 02:01:03;;;;;;;36.80;23.10;;;;;;;3.25;100.00;99899.50;5017876;28;20466;-74
2024/03/10 02:03:31;;;;;;;31.87;24.17;;;;;;;2.29;100.00;99765.56;5003885;28;20566;-74
2024/03/10 02:06:04;;;;;;;33.07;23.60;;;;;;;1.95;100.00;99733.09;5016930;28;20443;-74
2024/03/10 02:08:31;;;;;;;33.97;23.60;;;;;;;3.35;100.00;99988.41;5016465;28;20516;-74
2024/03/10 02:11:10;;;;;;;32.20;23.00;;;;;;;2.01;100.00;99735.06;5015120;28;20516;-74
2024/03/10 02:13:43;;;;;;;32.27;22.83;;;;;;;2.84;100.00;99874.03;5004235;28;21006;-74
2024/03/10 02:16:11;;;;;;;30.53;22.07;;;;;;;2.48;100.00;99828.66;5015572;28;20799;-74
2024/03/10 02:18:36;;;;;;;33.60;22.20;;;;;;;2.28;100.00;99788.53;5003707;28;20470;-75
2024/03/10 02:21:08;;;;;;;35.17;22.20;;;;;;;2.94;100.00;99874.63;5017237;28;20450;-74
2024/03/10 02:23:46;;;;;;;34.73;23.27;;;;;;;4.55;100.00;100126.03;5019675;28;20262;-74
2024/03/10 02:26:15;;;;;;;31.10;22.37;;;;;;;1.27;100.00;99641.06;4998289;28;20477;-74
2024/03/10 02:28:56;;;;;;;32.33;23.00;;;;;;;2.14;100.00;99758.34;5000934;28;20509;-74
2024/03/10 02:48:03;;;;;;;29.73;21.63;;;;;;;3.19;100.00;99921.41;5019859;28;20450;-74
2024/03/10 02:50:31;;;;;;;29.67;22.00;;;;;;;2.93;100.00;99867.69;5000155;28;20529;-75
2024/03/10 02:52:58;;;;;;;31.33;22.50;;;;;;;2.57;100.00;99826.81;4996714;28;20526;-73
2024/03/10 02:55:26;;;;;;;35.37;23.47;;;;;;;2.74;100.00;99828.38;5000585;28;20475;-74
2024/03/10 02:57:55;;;;;;;32.00;21.93;;;;;;;2.71;100.00;99834.84;4994499;28;21278;-74
2024/03/10 03:00:26;;;;;;;32.97;22.00;;;;;;;2.07;100.00;99722.16;5019415;28;20480;-74
2024/03/10 03:02:57;;;;;;;33.37;22.53;;;;;;;1.05;100.00;99579.22;5014837;28;20471;-74
2024/03/10 03:05:28;;;;;;;31.03;22.40;;;;;;;0.95;100.00;99575.94;5016877;28;20427;-74
2024/03/10 03:08:02;;;;;;;35.97;24.60;;;;;;;4.34;100.00;100043.50;5017980;28;21013;-74
2024/03/10 03:10:30;;;;;;;31.70;22.67;;;;;;;2.76;100.00;99847.59;4999441;28;20472;-74
2024/03/10 03:13:05;;;;;;;39.17;23.50;;;;;;;2.82;100.00;99862.78;4997575;28;20444;-74
2024/03/10 03:15:33;;;;;;;33.37;23.33;;;;;;;0.86;100.00;99503.84;4997230;28;24534;-75
2024/03/10 03:18:01;;;;;;;33.00;22.27;;;;;;;2.12;100.00;99764.78;4997084;28;20459;-74
2024/03/10 03:20:31;;;;;;;34.37;23.37;;;;;;;1.76;100.00;99718.44;5002820;28;20991;-74
2024/03/10 03:23:02;;;;;;;35.00;23.93;;;;;;;2.03;100.00;99766.66;4999870;28;20442;-74
2024/03/10 03:25:33;;;;;;;34.93;23.30;;;;;;;1.98;100.00;99793.59;4999461;28;20792;-74
2024/03/10 03:28:01;;;;;;;33.40;23.17;;;;;;;2.29;100.00;99837.00;5003065;28;20514;-74
2024/03/10 03:30:26;;;;;;;38.23;25.30;;;;;;;1.47;100.00;99666.13;4997210;28;20470;-75
2024/03/10 03:32:54;;;;;;;34.67;24.00;;;;;;;2.28;100.00;99782.44;5017255;28;20528;-74
2024/03/10 03:35:20;;;;;;;36.50;23.10;;;;;;;2.89;100.00;99877.00;5017245;28;20219;-74
2024/03/10 03:37:48;;;;;;;32.13;23.20;;;;;;;2.58;100.00;99845.19;4999386;28;20459;-74
2024/03/10 03:40:19;;;;;;;36.33;24.93;;;;;;;3.16;100.00;99934.00;5013709;28;20446;-74
2024/03/10 03:42:47;;;;;;;36.30;22.70;;;;;;;2.74;100.00;99883.19;5001720;28;20438;-74
2024/03/10 03:45:20;;;;;;;34.50;23.13;;;;;;;0.96;100.00;99572.31;4998813;28;20972;-74
2024/03/10 03:47:50;;;;;;;35.07;22.80;;;;;;;2.04;100.00;99781.50;5003408;28;20449;-74
2024/03/10 03:50:20;;;;;;;33.93;22.77;;;;;;;1.09;100.00;99615.69;5016939;28;20494;-74
2024/03/10 03:52:54;;;;;;;35.93;24.43;;;;;;;1.83;100.00;99702.72;4996033;28;21157;-75
2024/03/10 03:55:27;;;;;;;36.90;24.23;;;;;;;1.73;100.00;99725.88;5004373;28;20930;-74
2024/03/10 03:57:57;;;;;;;33.30;24.17;;;;;;;3.17;100.00;99933.00;5021788;28;20540;-74
2024/03/10 04:00:23;;;;;;;36.67;24.20;;;;;;;1.17;100.00;99579.69;5000410;28;20550;-74
2024/03/10 04:02:57;;;;;;;36.67;25.23;;;;;;;2.21;100.00;99777.00;4997957;28;20955;-74
2024/03/10 04:05:26;;;;;;;41.17;26.37;;;;;;;1.96;100.00;99728.63;4998348;28;20195;-74
2024/03/10 04:07:53;;;;;;;34.80;23.67;;;;;;;3.23;100.00;99944.72;5013935;28;20965;-74
2024/03/10 04:10:19;;;;;;;35.40;24.83;;;;;;;1.61;100.00;99716.66;4995227;28;20523;-74
2024/03/10 04:12:47;;;;;;;35.47;23.87;;;;;;;0.44;100.00;99499.63;5002193;28;20444;-74
2024/03/10 04:15:12;;;;;;;33.07;22.50;;;;;;;2.24;100.00;99793.34;4999055;28;20234;-75
2024/03/10 04:17:46;;;;;;;33.97;23.67;;;;;;;2.32;100.00;99832.19;5004236;28;20439;-74
2024/03/10 04:20:17;;;;;;;34.33;23.70;;;;;;;2.33;100.00;99815.31;5004021;28;20187;-74
2024/03/10 04:22:50;;;;;;;35.17;22.73;;;;;;;1.51;100.00;99699.16;5008133;28;20442;-74
2024/03/10 04:25:16;;;;;;;35.40;24.10;;;;;;;2.03;100.00;99814.25;5016405;28;20432;-74
2024/03/10 04:27:43;;;;;;;33.83;24.37;;;;;;;2.93;100.00;99917.22;5003634;28;20604;-74
2024/03/10 04:30:12;;;;;;;33.13;22.70;;;;;;;0.32;100.00;99469.28;5001849;28;20260;-74
2024/03/10 04:32:37;;;;;;;34.47;22.80;;;;;;;0.50;100.00;99520.06;5019562;28;20442;-74
2024/03/10 04:35:04;;;;;;;36.40;24.20;;;;;;;2.12;100.00;99788.59;5013586;28;20510;-73
2024/03/10 04:37:35;;;;;;;36.30;24.80;;;;;;;2.72;100.00;99894.78;5002530;28;20258;-74
2024/03/10 04:40:16;;;;;;;;;;;;;;;;;;;;;
2024/03/10 04:42:42;;;;;;;37.08;27.20;;;;;;;1.27;100.00;99683.34;5025240;28;20455;-73
2024/03/10 04:45:11;;;;;;;38.00;25.07;;;;;;;2.91;100.00;99901.47;5021074;28;20181;-74
2024/03/10 04:47:37;;;;;;;38.87;26.37;;;;;;;0.58;100.00;99512.16;4999575;28;20684;-74
2024/03/10 04:50:05;;;;;;;35.80;22.80;;;;;;;2.08;100.00;99763.47;5022618;28;20441;-74
2024/03/10 04:52:37;;;;;;;34.53;22.50;;;;;;;1.86;100.00;99709.50;5022523;28;20649;-74
2024/03/10 04:55:05;;;;;;;35.40;24.70;;;;;;;2.04;100.00;99770.94;5001380;28;20845;-74
2024/03/10 04:57:33;;;;;;;37.80;25.23;;;;;;;1.61;100.00;99701.63;5004301;28;20839;-75
2024/03/10 05:00:04;;;;;;;39.00;24.00;;;;;;;1.25;100.00;99640.44;5001939;28;20447;-74
2024/03/10 05:02:33;;;;;;;39.53;24.80;;;;;;;3.10;100.00;99917.97;5007413;28;20434;-74
2024/03/10 05:05:03;;;;;;;37.13;23.53;;;;;;;1.37;100.00;99646.19;5004673;28;20455;-74
2024/03/10 05:07:35;;;;;;;38.43;25.33;;;;;;;0.88;100.00;99541.47;5026536;28;20180;-75
2024/03/10 05:10:03;;;;;;;36.30;23.87;;;;;;;1.76;100.00;99736.94;5016888;28;20453;-74
2024/03/10 05:12:33;;;;;;;36.70;24.20;;;;;;;2.02;100.00;99751.75;5001206;28;20836;-74
2024/03/10 05:15:01;;;;;;;36.00;24.67;;;;;;;2.41;100.00;99841.75;5003241;28;20465;-74
2024/03/10 05:17:29;;;;;;;34.67;24.50;;;;;;;1.78;100.00;99695.28;5002404;28;20801;-75
2024/03/10 05:19:58;;;;;;;39.00;25.33;;;;;;;2.26;100.00;99764.09;5000022;28;20443;-74
2024/03/10 05:35:31;;;;;;;38.30;24.97;;;;;;;3.74;100.00;99974.28;5097423;27;20612;-66
2024/03/10 05:37:57;;;;;;;36.10;24.20;;;;;;;4.08;100.00;100021.66;5081078;28;20955;-66
2024/03/10 05:40:25;;;;;;;33.37;24.70;;;;;;;4.30;100.00;100043.88;5079355;28;20224;-66
2024/03/10 05:42:51;;;;;;;38.57;25.27;;;;;;;3.16;100.00;99899.56;5081662;28;20787;-66
2024/03/10 05:45:18;;;;;;;32.77;23.70;;;;;;;4.24;100.00;100049.91;5082738;28;20964;-66
2024/03/10 05:47:44;;;;;;;32.90;23.27;;;;;;;3.76;100.00;99990.84;5076210;28;20440;-66
2024/03/10 05:50:09;;;;;;;35.27;24.27;;;;;;;3.12;100.00;99887.63;5071164;28;20445;-66
2024/03/10 05:52:35;;;;;;;35.87;24.17;;;;;;;3.87;100.00;100036.53;5082287;28;20182;-66
2024/03/10 05:55:00;;;;;;;35.20;23.03;;;;;;;3.68;100.00;100006.81;5069275;28;20193;-66
2024/03/10 05:57:26;;;;;;;39.40;25.13;;;;;;;4.19;100.00;100073.47;5054455;28;20189;-66
2024/03/10 05:59:51;;;;;;;35.50;23.03;;;;;;;4.10;100.00;100068.41;5076363;28;20190;-66
2024/03/10 06:02:17;;;;;;;35.67;23.80;;;;;;;3.77;100.00;100024.31;5076193;28;20206;-66
2024/03/10 06:04:43;;;;;;;37.03;24.00;;;;;;;3.76;100.00;100038.59;5075132;28;20274;-66
2024/03/10 06:07:11;;;;;;;35.10;24.47;;;;;;;3.70;100.00;100033.97;5086051;28;20179;-66
2024/03/10 06:09:36;;;;;;;35.47;23.47;;;;;;;3.55;100.00;99993.28;5078354;28;20428;-66
2024/03/10 06:12:03;;;;;;;36.83;24.03;;;;;;;3.47;100.00;99985.38;5082294;28;20945;-66
2024/03/10 06:14:30;;;;;;;38.10;25.40;;;;;;;3.77;100.00;100034.13;5081702;28;20210;-66
2024/03/10 06:16:56;;;;;;;35.27;24.63;;;;;;;3.67;100.00;100034.31;5085193;28;20490;-66
2024/03/10 06:27:34;;;;;;;36.47;23.40;;;;;;;3.99;100.00;100048.41;5082577;28;20542;-66
2024/03/10 06:29:59;;;;;;;40.03;24.77;;;;;;;4.10;100.00;100057.78;5075933;28;20439;-66
2024/03/10 06:32:25;;;;;;;39.83;24.10;;;;;;;4.06;100.00;100070.59;5085210;28;20194;-66
2024/03/10 06:34:51;;;;;;;35.37;23.10;;;;;;;4.13;100.00;100070.72;5074061;28;20206;-66
2024/03/10 06:37:19;;;;;;;35.87;25.33;;;;;;;3.84;100.00;99998.75;5078490;28;20198;-66
2024/03/10 06:39:45;;;;;;;35.10;24.50;;;;;;;4.01;100.00;100010.06;5070383;28;20183;-66
2024/03/10 06:42:11;;;;;;;37.97;25.30;;;;;;;3.77;100.00;99954.53;5060390;28;20467;-66
2024/03/10 06:44:37;;;;;;;37.60;23.47;;;;;;;4.27;100.00;100038.91;5065105;28;20178;-66
2024/03/10 06:47:03;;;;;;;36.47;23.93;;;;;;;4.21;100.00;100013.09;5064629;28;20444;-66
2024/03/10 06:49:28;;;;;;;37.40;24.27;;;;;;;4.29;100.00;100030.78;5063590;28;20182;-66
2024/03/10 06:51:54;;;;;;;36.00;23.23;;;;;;;4.45;100.00;100035.97;5066281;28;20460;-66
2024/03/10 06:54:19;;;;;;;37.60;24.60;;;;;;;4.04;100.00;99987.66;5068672;28;20667;-66
2024/03/10 06:56:47;;;;;;;39.00;24.17;;;;;;;4.30;100.00;100033.25;5063070;28;20611;-66
2024/03/10 06:59:13;;;;;;;38.27;25.37;;;;;;;3.65;100.00;99918.81;5067732;28;20233;-66
2024/03/10 07:01:45;;;;;;;33.30;22.77;;;;;;;4.42;100.00;100035.50;5060740;28;20461;-66
2024/03/10 07:04:11;;;;;;;32.60;21.33;;;;;;;4.02;100.00;99979.06;5069717;28;20818;-66
2024/03/10 07:06:39;;;;;;;34.27;23.03;;;;;;;3.95;100.00;99970.16;5071343;28;20451;-66
2024/03/10 07:09:08;;;;;;;38.00;23.90;;;;;;;4.00;100.00;99949.25;5061444;28;23021;-66
2024/03/10 07:11:36;;;;;;;36.57;23.97;;;;;;;2.52;100.00;99724.09;5092078;23;20902;-78
2024/03/10 07:14:05;;;;;;;34.20;23.50;;;;;;;1.60;100.00;99610.13;5106548;28;20463;-80
2024/03/10 07:16:35;;;;;;;35.27;23.40;;;;;;;2.30;100.00;99679.88;5105271;28;20525;-80
2024/03/10 07:19:00;;;;;;;39.83;25.37;;;;;;;1.39;100.00;99544.63;5097532;28;20458;-80
2024/03/10 07:21:26;;;;;;;35.60;24.57;;;;;;;1.93;100.00;99594.91;5096725;28;20444;-79
2024/03/10 07:23:54;;;;;;;35.77;24.50;;;;;;;3.07;100.00;99752.22;5096257;28;20213;-78
2024/03/10 07:26:22;;;;;;;31.20;21.50;;;;;;;2.25;100.00;99660.03;5092913;28;20252;-79
2024/03/10 07:28:47;;;;;;;37.37;24.83;;;;;;;2.93;100.00;99769.69;5094856;28;20745;-78
2024/03/10 07:31:13;;;;;;;33.10;21.93;;;;;;;1.90;100.00;99549.50;5098290;28;20439;-78
2024/03/10 07:33:38;;;;;;;33.97;23.43;;;;;;;2.89;100.00;99744.56;5097824;28;20193;-78
2024/03/10 07:36:06;;;;;;;37.80;24.23;;;;;;;2.41;100.00;99674.22;5097270;28;20232;-78
2024/03/10 07:38:34;;;;;;;35.03;23.20;;;;;;;2.66;100.00;99739.25;5097178;28;20262;-78
2024/03/10 07:40:59;;;;;;;36.77;23.53;;;;;;;2.65;100.00;99684.63;5097460;28;20440;-77
2024/03/10 07:43:28;;;;;;;34.93;23.60;;;;;;;3.24;100.00;99790.03;5096166;28;20540;-77
2024/03/10 07:45:53;;;;;;;33.80;23.73;;;;;;;1.80;100.00;99528.56;5099302;28;20587;-79
2024/03/10 07:48:22;;;;;;;33.00;23.17;;;;;;;3.28;100.00;99796.63;5102150;28;20459;-78
2024/03/10 07:50:48;;;;;;;32.77;22.80;;;;;;;4.16;100.00;99919.88;5102937;28;20276;-77
2024/03/10 07:53:13;;;;;;;34.67;23.97;;;;;;;2.91;100.00;99736.44;5107017;28;20480;-78
2024/03/10 07:55:39;;;;;;;35.10;23.97;;;;;;;3.68;100.00;99868.09;5101298;28;20435;-78
2024/03/10 07:58:05;;;;;;;32.43;22.80;;;;;;;3.63;100.00;99860.66;5106345;28;20695;-78
2024/03/10 08:00:31;;;;;;;40.93;23.03;;;;;;;3.42;100.00;99775.66;5099873;28;20189;-77
2024/03/10 08:02:57;;;;;;;39.10;24.77;;;;;;;3.63;100.00;99827.00;5104181;28;20486;-77
2024/03/10 08:05:23;;;;;;;31.30;22.40;;;;;;;2.55;100.00;99646.16;5107350;28;20467;-78
2024/03/10 08:07:49;;;;;;;34.97;24.50;;;;;;;1.96;100.00;99564.66;5100246;28;20218;-78
2024/03/10 08:10:16;;;;;;;37.33;24.80;;;;;;;2.25;100.00;99567.44;5099317;28;20186;-81
2024/03/10 08:12:47;;;;;;;33.63;24.07;;;;;;;4.13;100.00;99874.31;5105671;28;20450;-78
2024/03/10 08:15:13;;;;;;;38.90;26.30;;;;;;;2.10;100.00;99520.78;5103476;28;20432;-77
2024/03/10 08:17:40;;;;;;;41.53;26.47;;;;;;;2.76;100.00;99666.69;5101279;28;20439;-79
2024/03/10 08:20:06;;;;;;;38.80;28.13;;;;;;;4.26;100.00;99866.56;5105453;28;20512;-79
2024/03/10 08:22:36;;;;;;;38.90;25.60;;;;;;;4.62;100.00;99950.84;5109424;28;20411;-78
2024/03/10 08:25:05;;;;;;;38.10;25.70;;;;;;;2.81;100.00;99659.06;5103860;28;20533;-79
2024/03/10 08:27:31;;;;;;;39.43;24.40;;;;;;;4.04;100.00;99829.28;5106172;28;20427;-78
2024/03/10 08:29:57;;;;;;;36.67;24.90;;;;;;;4.15;100.00;99857.22;5105123;28;20424;-78
2024/03/10 08:32:23;;;;;;;35.23;24.97;;;;;;;4.11;100.00;99850.63;5108853;28;20415;-78
2024/03/10 08:34:50;;;;;;;33.57;24.03;;;;;;;3.66;100.00;99734.84;5107704;28;20893;-80
2024/03/10 08:37:17;;;;;;;39.33;24.90;;;;;;;4.71;100.00;99880.66;5107334;28;20948;-78
2024/03/10 08:39:44;;;;;;;34.60;24.00;;;;;;;3.53;100.00;99730.97;5105776;28;20484;-78
2024/03/10 08:42:12;;;;;;;37.30;23.50;;;;;;;5.04;100.00;99992.72;5102997;28;20454;-79
2024/03/10 08:44:39;;;;;;;38.97;27.00;;;;;;;5.46;100.00;100057.72;5099482;28;20465;-78
2024/03/10 08:47:05;;;;;;;35.83;25.90;;;;;;;4.40;100.00;99880.88;5100415;28;20518;-79
2024/03/10 08:49:31;;;;;;;35.10;24.70;;;;;;;5.94;100.00;100092.75;5104998;28;20518;-79
2024/03/10 08:51:57;;;;;;;37.77;25.83;;;;;;;5.01;100.00;99934.63;5106450;28;20212;-80
2024/03/10 08:54:22;;;;;;;38.63;25.03;;;;;;;4.50;100.00;99828.28;5109691;28;20221;-79
2024/03/10 08:56:51;;;;;;;35.17;25.10;;;;;;;4.52;100.00;99837.72;5108230;28;20193;-80
2024/03/10 08:59:16;;;;;;;39.20;26.43;;;;;;;4.65;100.00;99846.88;5106822;28;20229;-79
2024/03/10 09:01:42;;;;;;;36.87;25.40;;;;;;;4.60;100.00;99815.56;5108994;28;20478;-82
2024/03/10 09:04:08;;;;;;;37.30;25.00;;;;;;;3.48;100.00;99642.38;5109123;28;20435;-79
2024/03/10 09:06:37;;;;;;;37.13;25.90;;;;;;;4.39;100.00;99787.09;5108221;28;20196;-79
2024/03/10 09:09:06;;;;;;;39.70;26.00;;;;;;;2.91;100.00;99541.25;5111502;28;20992;-79
2024/03/10 09:11:32;;;;;;;37.80;26.70;;;;;;;5.49;100.00;99955.44;5111525;28;20446;-79
2024/03/10 09:14:00;;;;;;;38.70;26.10;;;;;;;5.02;100.00;99879.63;5116971;28;20499;-80
2024/03/10 09:16:26;;;;;;;35.70;25.40;;;;;;;5.11;100.00;99879.34;5114456;28;20443;-81
2024/03/10 09:18:52;;;;;;;36.87;25.40;;;;;;;5.35;100.00;99926.06;5114504;28;20883;-81
2024/03/10 09:21:18;;;;;;;37.70;24.43;;;;;;;6.30;100.00;100070.59;5119178;28;20413;-80
2024/03/10 09:23:44;;;;;;;39.70;26.20;;;;;;;4.92;100.00;99818.81;5119150;28;20412;-80
2024/03/10 09:26:16;;;;;;;37.87;25.67;;;;;;;4.16;100.00;99699.59;5108579;28;20169;-80
2024/03/10 09:28:45;;;;;;;37.13;26.40;;;;;;;5.26;100.00;99873.16;5108794;28;20462;-80
2024/03/10 09:31:14;;;;;;;34.63;24.07;;;;;;;4.12;100.00;99649.75;5111144;28;20837;-80
2024/03/10 09:33:46;;;;;;;35.93;25.40;;;;;;;5.47;100.00;99888.31;5114763;28;20465;-80
2024/03/10 09:36:12;;;;;;;41.17;25.90;;;;;;;4.96;100.00;99807.59;5114164;28;20500;-80
2024/03/10 09:38:37;;;;;;;40.40;26.80;;;;;;;3.99;100.00;99622.06;5115303;28;20460;-80
2024/03/10 09:41:09;;;;;;;35.50;25.30;;;;;;;5.19;100.00;99788.84;5111639;28;20177;-80
2024/03/10 09:43:37;;;;;;;35.07;25.60;;;;;;;4.21;100.00;99635.34;5116302;28;20177;-81
2024/03/10 09:46:04;;;;;;;36.50;24.93;;;;;;;5.85;100.00;99888.91;5113468;28;20435;-79
2024/03/10 09:48:32;;;;;;;38.20;25.43;;;;;;;5.90;100.00;99891.78;5115458;28;20451;-80
2024/03/10 09:50:58;;;;;;;37.97;26.43;;;;;;;5.24;100.00;99782.97;5110537;28;20444;-79
2024/03/10 09:54:02;;;;;;;34.37;25.13;;;;;;;6.95;100.00;100042.06;5107083;28;20474;-78
2024/03/10 09:56:28;;;;;;;40.37;26.33;;;;;;;4.89;100.00;99697.78;5104580;28;20435;-78
2024/03/10 09:59:03;;;;;;;43.63;26.50;;;;;;;5.40;100.00;99748.13;5107300;28;20465;-80
2024/03/10 10:01:29;;;;;;;33.73;24.90;;;;;;;4.80;100.00;99651.06;5106323;28;20660;-78
2024/03/10 10:03:57;;;;;;;36.00;25.90;;;;;;;7.26;100.00;100041.59;5108042;28;20437;-79
2024/03/10 10:06:30;;;;;;;35.03;26.07;;;;;;;5.13;100.00;99714.34;5107224;28;20420;-79
2024/03/10 10:08:58;;;;;;;39.10;28.13;;;;;;;5.65;100.00;99737.88;5105106;28;20458;-80
2024/03/10 10:11:25;;;;;;;36.40;25.07;;;;;;;5.11;100.00;99656.06;5107933;28;20922;-79
2024/03/10 10:14:15;;;;;;;37.80;26.93;;;;;;;5.75;100.00;99726.91;5111676;28;20467;-79
2024/03/10 10:16:56;;;;;;;39.00;26.70;;;;;;;7.43;100.00;99989.59;5113095;28;20905;-80
2024/03/10 10:19:25;;;;;;;36.40;25.50;;;;;;;6.21;100.00;99829.41;5113784;28;20560;-80
2024/03/10 10:21:51;;;;;;;36.83;26.60;;;;;;;6.86;100.00;99894.75;5106129;27;20930;-78
2024/03/10 10:24:19;;;;;;;34.07;25.23;;;;;;;6.60;100.00;99852.00;5110882;28;20423;-77
2024/03/10 10:26:57;;;;;;;36.33;25.97;;;;;;;5.20;100.00;99574.31;5109697;28;20485;-80
2024/03/10 10:29:23;;;;;;;36.90;27.30;;;;;;;6.17;100.00;99727.81;5111147;28;20444;-78
2024/03/10 10:31:57;;;;;;;34.47;25.40;;;;;;;5.66;100.00;99619.00;5112935;28;20435;-77
2024/03/10 10:34:23;;;;;;;35.00;26.13;;;;;;;7.85;100.00;100014.38;5109513;28;20668;-76
2024/03/10 10:36:49;;;;;;;35.23;26.60;;;;;;;7.23;100.00;99879.31;5110005;28;20492;-79
2024/03/10 10:39:17;;;;;;;37.07;26.43;;;;;;;6.59;100.00;99747.22;5111246;28;20244;-77
2024/03/10 10:41:44;;;;;;;35.10;25.67;;;;;;;6.88;100.00;99780.75;5106954;28;20186;-78
2024/03/10 10:44:11;;;;;;;35.00;25.33;;;;;;;6.77;100.00;99747.50;5106349;28;20424;-77
2024/03/10 10:46:38;;;;;;;34.40;24.70;;;;;;;6.09;100.00;99632.94;5120721;22;21005;-80
2024/03/10 10:49:07;;;;;;;36.27;26.33;;;;;;;7.34;100.00;99788.03;5100713;28;20452;-80
2024/03/10 10:51:36;;;;;;;36.27;26.23;;;;;;;6.40;100.00;99636.94;5103523;28;20563;-81
2024/03/10 10:54:11;;;;;;;35.70;27.10;;;;;;;5.44;100.00;99504.72;5106265;28;20463;-82
2024/03/10 10:56:38;;;;;;;36.23;24.33;;;;;;;7.22;100.00;99765.66;5099434;28;20439;-82
2024/03/10 10:59:04;;;;;;;37.60;25.87;;;;;;;5.49;100.00;99424.31;5104539;28;20447;-81
2024/03/10 11:01:30;;;;;;;35.13;25.87;;;;;;;7.60;100.00;99762.38;5104548;28;20428;-79
2024/03/10 11:03:58;;;;;;;34.50;24.73;;;;;;;6.11;100.00;99507.63;5101552;28;20440;-79
2024/03/10 11:06:30;;;;;;;35.70;25.93;;;;;;;7.57;100.00;99747.59;5101424;28;20430;-78
2024/03/10 11:08:57;;;;;;;35.83;23.50;;;;;;;7.51;100.00;99774.28;5101069;28;20478;-78
2024/03/10 11:11:45;;;;;;;36.57;26.60;;;;;;;8.58;100.00;99954.88;5103296;28;20433;-79
2024/03/10 11:14:13;;;;;;;34.10;24.93;;;;;;;5.47;100.00;99450.31;5097789;28;20463;-78
2024/03/10 11:16:40;;;;;;;33.27;23.40;;;;;;;7.96;100.00;99798.53;5100377;28;20441;-77
2024/03/10 11:19:19;;;;;;;34.53;23.90;;;;;;;7.07;100.00;99655.69;5095794;28;20456;-77
2024/03/10 11:21:48;;;;;;;33.00;24.53;;;;;;;5.76;100.00;99443.03;5096837;28;20569;-77
2024/03/10 11:24:20;;;;;;;33.40;23.97;;;;;;;7.03;100.00;99641.97;5095857;27;20477;-78
2024/03/10 11:26:46;;;;;;;33.30;24.57;;;;;;;5.41;100.00;99371.34;5097346;28;20471;-79
2024/03/10 11:29:26;;;;;;;36.67;25.03;;;;;;;6.89;100.00;99587.00;5100275;28;20510;-78
2024/03/10 11:31:57;;;;;;;37.00;25.93;;;;;;;6.40;100.00;99485.13;5099670;28;20440;-79
2024/03/10 11:34:24;;;;;;;33.67;24.30;;;;;;;7.35;100.00;99672.31;5102662;28;20510;-80
2024/03/10 11:36:52;;;;;;;31.43;24.23;;;;;;;8.29;100.00;99839.34;5106297;28;20436;-79
2024/03/10 11:39:21;;;;;;;36.30;25.10;;;;;;;6.41;100.00;99515.22;5099857;27;20467;-79
2024/03/10 11:41:50;;;;;;;30.30;23.63;;;;;;;8.34;100.00;99772.75;5103267;28;20528;-79
2024/03/10 11:44:17;;;;;;;33.30;23.90;;;;;;;7.23;100.00;99576.09;5106994;28;20419;-80
2024/03/10 11:46:44;;;;;;;31.47;23.93;;;;;;;7.78;100.00;99636.28;5102960;28;20439;-80
2024/03/10 11:49:13;;;;;;;32.43;24.43;;;;;;;6.38;100.00;99492.50;5098540;28;20455;-79
2024/03/10 11:51:45;;;;;;;33.60;24.50;;;;;;;6.66;100.00;99558.09;5101852;28;20757;-79
2024/03/10 11:54:13;;;;;;;32.60;23.97;;;;;;;7.65;100.00;99755.41;5101796;28;20517;-79
2024/03/10 11:56:39;;;;;;;33.50;24.17;;;;;;;7.63;100.00;99724.63;5102105;28;20461;-79
2024/03/10 11:59:08;;;;;;;31.97;22.47;;;;;;;8.48;100.00;99812.84;5105112;28;20451;-79
2024/03/10 12:01:36;;;;;;;34.93;23.80;;;;;;;8.40;100.00;99795.19;5103870;28;20885;-79